createdAt,value
2023-03-22T00:00:00.697Z,77.8
2023-03-22T00:05:00.706Z,78.0
2023-03-22T00:10:00.635Z,78.1
2023-03-22T00:15:00.685Z,78.2
2023-03-22T00:20:00.698Z,78.1
2023-03-22T00:25:00.677Z,77.6
2023-03-22T00:30:00.632Z,77.8
2023-03-22T00:35:00.703Z,78.1
2023-03-22T00:40:00.650Z,78.3
2023-03-22T00:45:00.691Z,78.2
2023-03-22T00:50:00.704Z,78.2
2023-03-22T00:55:00.701Z,77.7
2023-03-22T01:00:00.656Z,77.7
2023-03-22T01:05:00.682Z,77.5
2023-03-22T01:10:00.676Z,77.2
2023-03-22T01:15:00.671Z,77.6
2023-03-22T01:20:00.632Z,77.4
2023-03-22T01:25:00.695Z,77.2
2023-03-22T01:30:00.648Z,77.2
2023-03-22T01:35:00.688Z,77.2
2023-03-22T01:40:00.679Z,76.8
2023-03-22T01:45:00.702Z,76.8
2023-03-22T01:50:00.657Z,76.9
2023-03-22T01:55:00.714Z,76.6
2023-03-22T02:00:00.763Z,76.7
2023-03-22T02:05:00.682Z,76.5
2023-03-22T02:10:00.645Z,76.6
2023-03-22T02:15:00.696Z,76.5
2023-03-22T02:20:00.637Z,76.5
2023-03-22T02:25:00.689Z,76.7
2023-03-22T02:30:00.681Z,76.3
2023-03-22T02:35:00.687Z,76.6
2023-03-22T02:40:00.642Z,76.4
2023-03-22T02:45:00.678Z,76.7
2023-03-22T02:50:00.662Z,76.9
2023-03-22T02:55:00.687Z,76.8
2023-03-22T03:00:00.657Z,76.8
2023-03-22T03:05:00.671Z,76.7
2023-03-22T03:10:00.673Z,76.4
2023-03-22T03:15:00.708Z,76.0
2023-03-22T03:20:00.706Z,75.6
2023-03-22T03:25:00.707Z,75.4
2023-03-22T03:30:00.667Z,75.4
2023-03-22T03:35:00.701Z,75.5
2023-03-22T03:40:00.652Z,75.2
2023-03-22T03:45:00.721Z,75.2
2023-03-22T03:50:00.638Z,75.4
2023-03-22T03:55:00.721Z,75.3
2023-03-22T04:00:00.639Z,75.6
2023-03-22T04:05:00.726Z,75.5
2023-03-22T04:10:00.719Z,75.5
2023-03-22T04:15:00.709Z,75.5
2023-03-22T04:20:00.652Z,75.5
2023-03-22T04:25:00.953Z,75.5
2023-03-22T04:30:00.649Z,75.3
2023-03-22T04:35:00.691Z,75.2
2023-03-22T04:40:00.726Z,75.1
2023-03-22T04:45:00.730Z,75.1
2023-03-22T04:50:00.638Z,74.8
2023-03-22T04:55:00.716Z,74.6
2023-03-22T05:00:00.649Z,74.5
2023-03-22T05:05:00.678Z,74.6
2023-03-22T05:10:00.698Z,74.9
2023-03-22T05:15:00.690Z,74.6
2023-03-22T05:20:00.675Z,74.5
2023-03-22T05:25:00.681Z,74.7
2023-03-22T05:30:00.766Z,74.6
2023-03-22T05:35:00.670Z,74.4
2023-03-22T05:40:00.706Z,74.1
2023-03-22T05:45:00.725Z,74.2
2023-03-22T05:50:00.681Z,74.0
2023-03-22T05:55:00.704Z,74.0
2023-03-22T06:00:00.683Z,74.1
2023-03-22T06:05:00.720Z,73.7
2023-03-22T06:10:00.655Z,73.6
2023-03-22T06:15:00.686Z,73.5
2023-03-22T06:20:00.681Z,72.9
2023-03-22T06:25:00.686Z,72.8
2023-03-22T06:30:00.696Z,72.1
2023-03-22T06:35:00.702Z,71.9
2023-03-22T06:40:00.646Z,71.5
2023-03-22T06:45:00.674Z,71.3
2023-03-22T06:50:00.689Z,71.1
2023-03-22T06:55:00.676Z,71.0
2023-03-22T07:00:00.656Z,71.2
2023-03-22T07:05:00.714Z,71.0
2023-03-22T07:10:00.665Z,70.9
2023-03-22T07:15:00.691Z,70.9
2023-03-22T07:20:00.641Z,71.2
2023-03-22T07:25:01.860Z,71.0
2023-03-22T07:30:00.647Z,71.3
2023-03-22T07:35:00.682Z,71.5
2023-03-22T07:40:00.675Z,71.5
2023-03-22T07:45:00.736Z,71.8
2023-03-22T07:50:00.687Z,71.8
2023-03-22T07:55:00.696Z,71.8
2023-03-22T08:00:00.699Z,72.1
2023-03-22T08:05:00.700Z,72.2
2023-03-22T08:10:00.678Z,72.2
2023-03-22T08:15:00.706Z,71.8
2023-03-22T08:20:00.718Z,71.6
2023-03-22T08:25:00.688Z,71.0
2023-03-22T08:30:00.691Z,70.2
2023-03-22T08:35:00.706Z,70.8
2023-03-22T08:40:00.760Z,62.0
2023-03-22T08:45:00.695Z,54.7
2023-03-22T08:50:00.668Z,50.1
2023-03-22T08:55:00.719Z,59.1
2023-03-22T09:00:00.682Z,52.0
2023-03-22T09:05:00.677Z,54.1
2023-03-22T09:10:00.677Z,49.4
2023-03-22T09:15:00.700Z,50.4
2023-03-22T09:20:12.027Z,54.9
2023-03-22T09:25:00.698Z,56.2
2023-03-22T09:30:00.694Z,57.9
2023-03-22T09:35:00.690Z,59.4
2023-03-22T09:40:00.689Z,63.1
2023-03-22T09:45:00.650Z,62.0
2023-03-22T09:50:00.687Z,62.5
2023-03-22T09:55:00.687Z,62.9
2023-03-22T10:00:00.646Z,61.9
2023-03-22T10:05:00.694Z,61.5
2023-03-22T10:10:00.676Z,61.2
2023-03-22T10:15:00.695Z,61.1
2023-03-22T10:20:00.699Z,61.2
2023-03-22T10:25:00.712Z,61.3
2023-03-22T10:30:00.698Z,60.9
2023-03-22T10:35:00.655Z,60.5
2023-03-22T10:40:00.737Z,60.8
2023-03-22T10:45:00.643Z,60.0
2023-03-22T10:50:00.670Z,59.7
2023-03-22T10:55:03.787Z,59.4
2023-03-22T11:00:01.840Z,59.1
2023-03-22T11:05:00.672Z,58.8
2023-03-22T11:10:00.716Z,58.9
2023-03-22T11:15:00.707Z,58.3
2023-03-22T11:20:00.720Z,58.4
2023-03-22T11:25:00.692Z,58.5
2023-03-22T11:30:00.697Z,58.6
2023-03-22T11:35:00.673Z,58.4
2023-03-22T11:40:00.673Z,58.7
2023-03-22T11:45:00.675Z,58.7
2023-03-22T11:50:00.718Z,58.3
2023-03-22T11:55:00.634Z,58.5
2023-03-22T12:00:00.671Z,58.3
2023-03-22T12:05:00.800Z,57.8
2023-03-22T12:10:00.701Z,57.9
2023-03-22T12:15:00.690Z,58.4
2023-03-22T12:20:00.679Z,58.6
2023-03-22T12:25:00.697Z,58.4
2023-03-22T12:30:00.657Z,58.2
2023-03-22T12:35:16.449Z,57.2
2023-03-22T12:40:00.686Z,57.0
2023-03-22T12:45:05.165Z,56.2
2023-03-22T12:50:00.726Z,55.9
2023-03-22T12:55:00.694Z,57.9
2023-03-22T13:00:01.113Z,58.9
2023-03-22T13:05:00.707Z,60.6
2023-03-22T13:10:00.690Z,61.4
2023-03-22T13:15:00.704Z,61.6
2023-03-22T13:20:00.690Z,62.7
2023-03-22T13:25:00.700Z,63.0
2023-03-22T13:30:00.741Z,63.6
2023-03-22T13:35:00.714Z,64.0
2023-03-22T13:40:00.688Z,64.3
2023-03-22T13:45:00.722Z,65.0
2023-03-22T13:50:00.712Z,64.5
2023-03-22T13:55:00.638Z,64.6
2023-03-22T14:00:10.441Z,64.7
2023-03-22T14:05:00.693Z,64.4
2023-03-22T14:10:00.695Z,64.7
2023-03-22T14:15:00.659Z,64.1
2023-03-22T14:20:00.685Z,64.1
2023-03-22T14:55:00.684Z,63.5
2023-03-22T15:00:00.615Z,64.7
2023-03-22T15:05:00.639Z,63.9
2023-03-22T15:10:00.660Z,63.6
2023-03-22T15:15:00.678Z,63.7
2023-03-22T15:20:00.620Z,63.7
2023-03-22T15:25:00.662Z,63.9
2023-03-22T15:30:00.650Z,63.7
2023-03-22T15:35:00.661Z,64.1
2023-03-22T15:40:00.683Z,64.2
2023-03-22T15:45:00.613Z,64.2
2023-03-22T15:50:00.653Z,64.2
2023-03-22T15:55:00.730Z,64.2
2023-03-22T16:00:00.653Z,64.3
2023-03-22T16:05:00.669Z,64.6
2023-03-22T16:10:00.621Z,64.8
2023-03-22T16:15:00.655Z,65.1
2023-03-22T16:20:00.766Z,66.1
2023-03-22T16:25:00.661Z,66.8
2023-03-22T16:30:00.612Z,67.2
2023-03-22T16:35:00.667Z,67.3
2023-03-22T16:40:00.685Z,67.1
2023-03-22T16:45:00.668Z,67.3
2023-03-22T16:50:00.628Z,67.6
2023-03-22T16:55:00.657Z,68.3
2023-03-22T17:00:00.654Z,68.6
2023-03-22T17:05:00.727Z,69.0
2023-03-22T17:10:00.620Z,69.3
2023-03-22T17:15:00.660Z,69.9
2023-03-22T17:20:00.664Z,70.5
2023-03-22T17:25:00.658Z,70.2
2023-03-22T17:30:00.671Z,70.4
2023-03-22T17:35:00.661Z,70.7
2023-03-22T17:40:31.368Z,70.4
2023-03-22T17:45:00.669Z,70.3
2023-03-22T17:50:00.665Z,69.8
2023-03-22T17:55:18.622Z,69.7
2023-03-22T18:00:00.623Z,69.2
2023-03-22T18:05:00.905Z,68.9
2023-03-22T18:10:00.648Z,68.5
2023-03-22T18:15:00.654Z,67.9
2023-03-22T18:25:00.669Z,67.5
2023-03-22T18:30:00.673Z,67.1
2023-03-22T18:35:01.283Z,66.6
2023-03-22T18:40:41.783Z,66.6
2023-03-22T18:45:00.682Z,66.3
2023-03-22T18:50:00.637Z,66.2
2023-03-22T18:55:15.152Z,66.3
2023-03-22T19:00:00.656Z,66.0
2023-03-22T19:05:00.667Z,66.1
2023-03-22T19:10:00.636Z,66.2
2023-03-22T19:15:28.098Z,66.1
2023-03-22T19:20:00.664Z,65.9
2023-03-22T19:25:00.659Z,65.6
2023-03-22T19:30:00.644Z,65.3
2023-03-22T19:35:00.698Z,65.2
2023-03-22T19:40:59.362Z,65.3
2023-03-22T19:45:00.676Z,65.1
2023-03-22T19:50:00.670Z,65.2
2023-03-22T19:55:00.668Z,65.1
2023-03-22T20:00:36.344Z,64.9
2023-03-22T20:05:08.022Z,65.3
2023-03-22T20:10:00.656Z,65.2
2023-03-22T20:15:00.652Z,65.1
2023-03-22T20:20:00.646Z,64.6
2023-03-22T20:25:00.796Z,64.7
2023-03-22T20:30:00.680Z,65.7
2023-03-22T20:35:00.661Z,67.0
2023-03-22T20:40:00.641Z,67.5
2023-03-22T20:45:00.660Z,68.6
2023-03-22T20:50:00.611Z,69.8
2023-03-22T20:55:00.651Z,69.7
2023-03-22T21:00:00.636Z,69.8
2023-03-22T21:05:00.645Z,68.9
2023-03-22T21:10:00.667Z,68.5
2023-03-22T21:15:00.622Z,68.4
2023-03-22T21:20:00.693Z,68.7
2023-03-22T21:25:00.657Z,68.5
2023-03-22T21:30:00.628Z,68.0
2023-03-22T21:35:01.005Z,67.9
2023-03-22T21:40:00.622Z,67.6
2023-03-22T21:45:00.674Z,68.2
2023-03-22T21:50:00.660Z,68.7
2023-03-22T21:55:00.670Z,68.6
2023-03-22T22:00:00.674Z,68.6
2023-03-22T22:05:00.669Z,68.8
2023-03-22T22:10:00.677Z,68.6
2023-03-22T22:15:00.620Z,68.7
2023-03-22T22:20:00.646Z,68.4
2023-03-22T22:25:00.673Z,68.7
2023-03-22T22:30:00.664Z,69.0
2023-03-22T22:35:00.611Z,69.5
2023-03-22T22:40:00.666Z,69.5
2023-03-22T22:45:00.664Z,69.2
2023-03-22T22:50:00.652Z,68.5
2023-03-22T22:55:00.668Z,68.7
2023-03-22T23:00:00.660Z,68.5
2023-03-22T23:05:00.673Z,68.4
2023-03-22T23:10:00.614Z,69.0
2023-03-22T23:15:00.670Z,69.7
2023-03-22T23:20:00.658Z,70.0
2023-03-22T23:25:00.653Z,70.8
2023-03-22T23:30:00.675Z,71.4
2023-03-22T23:35:00.674Z,72.0
2023-03-22T23:40:00.684Z,72.8
2023-03-22T23:45:00.658Z,73.6
2023-03-22T23:50:00.669Z,74.6
2023-03-22T23:55:00.686Z,76.2
